Iwanui, Waitara Historical Data
Daily Summary for February 14, 2018 Units:  Metric    English   Both
« Previous Day
Next Day »
Daily Weekly Monthly Yearly Custom
  High: Low: Average:
Temperature: 27.8 °C 15.3 °C 21.8 °C
Dew Point: 22.9 °C 13.7 °C 17.7 °C
Humidity: 98% 53% 80%
Wind Speed: 17.2km/h 0.0km/h 4.3km/h
Wind Gust: 27.0km/h - -
Wind- - West
Pressure: 1014.1 hPa 1011.4 hPa -
Precipitation: 0.3 mm    
Historical Graphs
 
 
Tabular Data for February 14, 2018
Time Temperature Dew Point Pressure Wind Wind Speed Wind Gust Humidity Rainfall Rate (Hourly)
00:02 20.6 °C 19.8 °C 1014.1 hPa SW 1.1 km/h 6.1 km/h 95% 0.0 mm
00:07 20.6 °C 19.8 °C 1014.1 hPa WSW 3.5 km/h 6.1 km/h 95% 0.0 mm
00:12 20.5 °C 19.7 °C 1014.1 hPa WSW 3.5 km/h 6.1 km/h 95% 0.0 mm
00:17 20.4 °C 19.6 °C 1014.1 hPa Calm   6.1 km/h 95% 0.0 mm
00:22 20.4 °C 19.6 °C 1014.1 hPa WSW 1.1 km/h 6.1 km/h 95% 0.0 mm
00:28 20.3 °C 19.5 °C 1014.1 hPa WSW 1.1 km/h 6.1 km/h 95% 0.0 mm
00:33 20.2 °C 19.4 °C 1013.8 hPa WSW 2.6 km/h 6.1 km/h 95% 0.0 mm
00:38 20.1 °C 19.3 °C 1013.8 hPa West 2.6 km/h 3.5 km/h 95% 0.0 mm
00:43 20.0 °C 19.2 °C 1013.8 hPa Calm   3.5 km/h 95% 0.0 mm
00:48 19.8 °C 19.2 °C 1013.8 hPa Calm   3.5 km/h 96% 0.0 mm
00:53 19.7 °C 19.1 °C 1013.8 hPa Calm   1.1 km/h 96% 0.0 mm
00:58 19.5 °C 18.9 °C 1013.8 hPa Calm   1.1 km/h 96% 0.0 mm
01:03 19.3 °C 18.7 °C 1013.8 hPa Calm   2.6 km/h 96% 0.0 mm
01:08 19.1 °C 18.4 °C 1013.8 hPa Calm   2.6 km/h 96% 0.0 mm
01:13 19.0 °C 18.4 °C 1013.8 hPa Calm   1.1 km/h 96% 0.0 mm
01:18 19.0 °C 18.4 °C 1013.8 hPa Calm   1.1 km/h 96% 0.0 mm
01:23 18.8 °C 18.2 °C 1013.4 hPa Calm   1.1 km/h 96% 0.0 mm
01:28 18.8 °C 18.3 °C 1013.8 hPa Calm   1.1 km/h 97% 0.0 mm
01:33 18.8 °C 18.3 °C 1013.8 hPa Calm   1.1 km/h 97% 0.0 mm
01:38 18.8 °C 18.3 °C 1013.8 hPa Calm   1.1 km/h 97% 0.0 mm
01:43 18.7 °C 18.2 °C 1013.8 hPa Calm   1.1 km/h 97% 0.0 mm
01:48 18.7 °C 18.2 °C 1013.4 hPa Calm     97% 0.0 mm
01:53 18.7 °C 18.2 °C 1013.8 hPa Calm     97% 0.0 mm
01:58 18.7 °C 18.2 °C 1013.4 hPa Calm     97% 0.0 mm
02:03 18.8 °C 18.3 °C 1013.4 hPa Calm     97% 0.0 mm
02:08 18.7 °C 18.2 °C 1013.4 hPa Calm     97% 0.0 mm
02:13 18.6 °C 18.1 °C 1013.4 hPa Calm     97% 0.0 mm
02:18 18.6 °C 18.1 °C 1013.4 hPa Calm     97% 0.0 mm
02:23 18.5 °C 18.1 °C 1013.1 hPa East 1.1 km/h 2.6 km/h 97% 0.0 mm
02:28 18.5 °C 18.1 °C 1013.4 hPa Calm   3.5 km/h 97% 0.0 mm
02:33 18.3 °C 17.8 °C 1013.4 hPa Calm   3.5 km/h 97% 0.0 mm
02:38 18.2 °C 17.7 °C 1013.1 hPa Calm   1.1 km/h 97% 0.0 mm
02:43 18.1 °C 17.6 °C 1013.1 hPa Calm   1.1 km/h 97% 0.0 mm
02:48 18.1 °C 17.6 °C 1013.1 hPa Calm   1.1 km/h 97% 0.0 mm
02:53 17.9 °C 17.3 °C 1013.1 hPa Calm   1.1 km/h 96% 0.0 mm
02:58 17.9 °C 17.3 °C 1013.1 hPa Calm   1.1 km/h 96% 0.0 mm
03:03 17.8 °C 17.2 °C 1013.1 hPa Calm   2.6 km/h 96% 0.0 mm
03:08 17.8 °C 17.2 °C 1013.1 hPa Calm   2.6 km/h 96% 0.0 mm
03:13 17.7 °C 17.1 °C 1013.1 hPa Calm   1.1 km/h 96% 0.0 mm
03:18 17.7 °C 17.1 °C 1013.1 hPa Calm   1.1 km/h 96% 0.0 mm
03:24 17.8 °C 17.2 °C 1013.1 hPa Calm     96% 0.0 mm
03:29 17.9 °C 17.3 °C 1013.1 hPa Calm     96% 0.0 mm
03:34 18.1 °C 17.6 °C 1013.1 hPa Calm     97% 0.0 mm
03:39 18.3 °C 17.8 °C 1013.1 hPa Calm     97% 0.0 mm
03:44 18.4 °C 17.9 °C 1013.1 hPa Calm     97% 0.0 mm
03:49 18.5 °C 18.1 °C 1013.1 hPa Calm     97% 0.0 mm
03:54 18.6 °C 18.1 °C 1012.8 hPa Calm     97% 0.0 mm
03:59 18.7 °C 18.2 °C 1012.8 hPa Calm     97% 0.0 mm
04:04 18.9 °C 18.4 °C 1013.1 hPa Calm     97% 0.0 mm
04:09 18.9 °C 18.4 °C 1013.1 hPa Calm     97% 0.0 mm
04:14 19.0 °C 18.4 °C 1013.1 hPa Calm     96% 0.0 mm
04:19 19.0 °C 18.4 °C 1013.1 hPa Calm     96% 0.0 mm
04:24 19.1 °C 18.4 °C 1013.1 hPa Calm     96% 0.0 mm
04:29 19.1 °C 18.6 °C 1013.1 hPa Calm     97% 0.0 mm
04:34 19.1 °C 18.6 °C 1012.8 hPa Calm     97% 0.0 mm
04:40 19.1 °C 18.6 °C 1013.1 hPa Calm   1.1 km/h 97% 0.0 mm
04:45 19.1 °C 18.6 °C 1013.1 hPa Calm   1.1 km/h 97% 0.0 mm
04:50 19.1 °C 18.6 °C 1013.1 hPa Calm     97% 0.0 mm
04:55 19.2 °C 18.7 °C 1013.1 hPa Calm     97% 0.0 mm
05:00 19.2 °C 18.7 °C 1013.1 hPa Calm     97% 0.0 mm
05:05 19.2 °C 18.7 °C 1013.1 hPa Calm     97% 0.0 mm
05:10 19.2 °C 18.7 °C 1013.1 hPa Calm     97% 0.0 mm
05:15 19.3 °C 18.8 °C 1012.8 hPa Calm     97% 0.0 mm
05:20 19.3 °C 18.8 °C 1013.1 hPa Calm     97% 0.0 mm
05:25 19.3 °C 18.8 °C 1012.8 hPa Calm     97% 0.0 mm
05:30 19.3 °C 18.8 °C 1012.8 hPa Calm     97% 0.0 mm
05:35 19.3 °C 18.8 °C 1012.8 hPa Calm     97% 0.0 mm
05:40 19.2 °C 18.7 °C 1013.1 hPa Calm     97% 0.0 mm
05:45 19.3 °C 18.8 °C 1013.1 hPa Calm     97% 0.0 mm
05:50 19.3 °C 18.8 °C 1012.8 hPa Calm     97% 0.0 mm
05:55 19.3 °C 18.8 °C 1012.8 hPa Calm     97% 0.0 mm
06:00 19.2 °C 18.7 °C 1012.8 hPa Calm     97% 0.0 mm
06:05 19.2 °C 18.7 °C 1012.8 hPa Calm     97% 0.0 mm
06:10 19.3 °C 18.8 °C 1012.8 hPa Calm     97% 0.0 mm
06:15 19.3 °C 18.8 °C 1013.1 hPa Calm     97% 0.0 mm
06:20 19.3 °C 18.8 °C 1013.1 hPa Calm     97% 0.0 mm
06:25 19.3 °C 18.8 °C 1013.1 hPa Calm     97% 0.0 mm
06:30 19.3 °C 18.8 °C 1013.1 hPa Calm   2.6 km/h 97% 0.0 mm
06:35 19.3 °C 18.8 °C 1013.1 hPa Calm   3.5 km/h 97% 0.0 mm
06:40 19.2 °C 18.7 °C 1013.1 hPa SSE 1.1 km/h 3.5 km/h 97% 0.0 mm
06:45 19.1 °C 18.6 °C 1013.1 hPa South 2.6 km/h 5.0 km/h 97% 0.0 mm
06:50 19.1 °C 18.6 °C 1013.1 hPa South 1.1 km/h 5.0 km/h 97% 0.0 mm
06:55 19.0 °C 18.6 °C 1013.1 hPa South 2.6 km/h 5.0 km/h 97% 0.0 mm
07:00 18.9 °C 18.6 °C 1013.1 hPa SSE 2.6 km/h 5.0 km/h 98% 0.0 mm
07:05 18.9 °C 18.6 °C 1013.1 hPa SSE 1.1 km/h 5.0 km/h 98% 0.0 mm
07:10 18.7 °C 18.4 °C 1013.1 hPa Calm   3.5 km/h 98% 0.0 mm
07:15 18.7 °C 18.4 °C 1013.1 hPa SSE 1.1 km/h 3.5 km/h 98% 0.0 mm
07:20 18.7 °C 18.4 °C 1012.8 hPa SSE 1.1 km/h 3.5 km/h 98% 0.0 mm
07:25 18.7 °C 18.4 °C 1012.8 hPa Calm   2.6 km/h 98% 0.0 mm
07:30 18.8 °C 18.5 °C 1012.8 hPa Calm   2.6 km/h 98% 0.0 mm
07:35 18.9 °C 18.6 °C 1012.8 hPa Calm   1.1 km/h 98% 0.0 mm
07:41 19.0 °C 18.6 °C 1012.8 hPa Calm   2.6 km/h 97% 0.0 mm
07:46 19.1 °C 18.6 °C 1012.8 hPa South 1.1 km/h 3.5 km/h 97% 0.0 mm
07:51 19.2 °C 18.7 °C 1012.8 hPa Calm   3.5 km/h 97% 0.0 mm
07:56 19.4 °C 18.9 °C 1013.1 hPa SE 1.1 km/h 3.5 km/h 97% 0.0 mm
08:01 19.6 °C 19.1 °C 1013.1 hPa Calm   2.6 km/h 97% 0.0 mm
08:06 19.7 °C 19.2 °C 1013.1 hPa Calm   2.6 km/h 97% 0.0 mm
08:11 19.8 °C 19.3 °C 1013.1 hPa SSW 1.1 km/h 3.5 km/h 97% 0.0 mm
08:16 19.8 °C 19.3 °C 1013.1 hPa South 2.6 km/h 7.2 km/h 97% 0.0 mm
08:21 19.9 °C 19.4 °C 1013.1 hPa South 1.1 km/h 7.2 km/h 97% 0.0 mm
08:26 19.9 °C 19.4 °C 1013.1 hPa South 1.1 km/h 5.0 km/h 97% 0.0 mm
08:31 20.1 °C 19.4 °C 1013.1 hPa South 2.6 km/h 3.5 km/h 96% 0.0 mm
08:36 20.2 °C 19.6 °C 1013.1 hPa South 2.6 km/h 5.0 km/h 96% 0.0 mm
08:41 20.2 °C 19.6 °C 1013.1 hPa South 1.1 km/h 5.0 km/h 96% 0.0 mm
08:46 20.3 °C 19.7 °C 1013.1 hPa SSE 1.1 km/h 3.5 km/h 96% 0.0 mm
08:51 20.4 °C 19.8 °C 1013.1 hPa South 3.5 km/h 6.1 km/h 96% 0.0 mm
08:56 20.4 °C 19.8 °C 1013.1 hPa South 1.1 km/h 6.1 km/h 96% 0.0 mm
09:01 20.4 °C 19.8 °C 1013.1 hPa SSE 1.1 km/h 6.1 km/h 96% 0.0 mm
09:06 20.5 °C 19.8 °C 1013.1 hPa South 1.1 km/h 6.1 km/h 96% 0.0 mm
09:11 20.6 °C 19.9 °C 1013.1 hPa South 1.1 km/h 6.1 km/h 96% 0.0 mm
09:16 21.2 °C 20.4 °C 1013.1 hPa SSW 2.6 km/h 6.1 km/h 95% 0.0 mm
09:21 23.0 °C 22.3 °C 1013.1 hPa South 2.6 km/h 6.1 km/h 96% 0.3 mm
09:26 23.1 °C 22.3 °C 1013.1 hPa NE 1.1 km/h 3.5 km/h 95% 0.3 mm
09:31 23.6 °C 22.6 °C 1013.4 hPa Calm   3.5 km/h 94% 0.3 mm
09:37 24.1 °C 22.7 °C 1013.1 hPa Calm   2.6 km/h 92% 0.3 mm
09:42 24.8 °C 22.9 °C 1013.4 hPa Calm   2.6 km/h 89% 0.3 mm
09:47 24.9 °C 22.1 °C 1013.1 hPa Calm   2.6 km/h 84% 0.3 mm
09:52 25.0 °C 21.3 °C 1013.1 hPa SW 1.1 km/h 3.5 km/h 80% 0.3 mm
09:57 24.7 °C 19.3 °C 1013.1 hPa NW 5.0 km/h 7.2 km/h 72% 0.3 mm
10:02 24.0 °C 18.7 °C 1013.4 hPa NW 2.6 km/h 8.7 km/h 72% 0.3 mm
10:07 23.8 °C 19.1 °C 1013.1 hPa NW 5.0 km/h 8.7 km/h 75% 0.3 mm
10:12 23.4 °C 18.9 °C 1013.1 hPa NW 2.6 km/h 8.7 km/h 76% 0.3 mm
10:17 24.1 °C 19.2 °C 1013.1 hPa NNW 5.0 km/h 8.7 km/h 74% 0.3 mm
10:22 24.1 °C 18.6 °C 1013.1 hPa North 6.1 km/h 8.7 km/h 71% 0.0 mm
10:27 24.1 °C 18.1 °C 1013.1 hPa North 2.6 km/h 8.7 km/h 69% 0.0 mm
10:32 24.4 °C 18.8 °C 1012.8 hPa North 2.6 km/h 8.7 km/h 71% 0.0 mm
10:37 25.8 °C 18.7 °C 1012.8 hPa NNW 5.0 km/h 7.2 km/h 65% 0.0 mm
10:43 25.8 °C 18.0 °C 1013.1 hPa NNW 2.6 km/h 7.2 km/h 62% 0.0 mm
10:48 25.8 °C 18.0 °C 1012.8 hPa North 5.0 km/h 7.2 km/h 62% 0.0 mm
10:53 26.6 °C 19.0 °C 1013.1 hPa NNW 5.0 km/h 8.7 km/h 63% 0.0 mm
10:58 25.8 °C 18.0 °C 1013.1 hPa NW 2.6 km/h 8.7 km/h 62% 0.0 mm
11:03 25.1 °C 17.8 °C 1013.1 hPa WNW 6.1 km/h 11.1 km/h 64% 0.0 mm
11:08 24.4 °C 18.1 °C 1012.8 hPa WNW 3.5 km/h 11.1 km/h 68% 0.0 mm
11:13 24.0 °C 18.2 °C 1013.1 hPa NW 2.6 km/h 9.7 km/h 70% 0.0 mm
11:18 24.9 °C 19.6 °C 1013.1 hPa NW 3.5 km/h 7.2 km/h 72% 0.0 mm
11:23 25.8 °C 19.0 °C 1012.8 hPa WNW 5.0 km/h 8.7 km/h 66% 0.0 mm
11:28 26.6 °C 17.9 °C 1012.8 hPa West 2.6 km/h 8.7 km/h 59% 0.0 mm
11:33 26.6 °C 17.9 °C 1012.8 hPa West 2.6 km/h 12.2 km/h 59% 0.0 mm
11:38 26.6 °C 18.2 °C 1012.8 hPa West 2.6 km/h 12.2 km/h 60% 0.0 mm
11:43 25.8 °C 17.7 °C 1012.8 hPa WNW 2.6 km/h 7.2 km/h 61% 0.0 mm
11:48 25.4 °C 17.9 °C 1012.8 hPa NW 7.2 km/h 11.1 km/h 63% 0.0 mm
11:53 25.1 °C 18.3 °C 1012.8 hPa NW 8.7 km/h 11.1 km/h 66% 0.0 mm
11:58 25.0 °C 18.9 °C 1012.8 hPa NW 7.2 km/h 11.1 km/h 69% 0.0 mm
12:03 25.2 °C 19.1 °C 1013.1 hPa NNW 5.0 km/h 11.1 km/h 69% 0.0 mm
12:08 24.9 °C 18.6 °C 1013.1 hPa NW 8.7 km/h 13.4 km/h 68% 0.0 mm
12:13 24.3 °C 18.7 °C 1013.1 hPa NW 7.2 km/h 13.4 km/h 71% 0.0 mm
12:18 24.0 °C 18.0 °C 1013.1 hPa NW 5.0 km/h 9.7 km/h 69% 0.0 mm
12:23 23.8 °C 18.4 °C 1013.1 hPa NW 7.2 km/h 12.2 km/h 72% 0.0 mm
12:28 23.6 °C 18.3 °C 1013.1 hPa NNW 7.2 km/h 12.2 km/h 72% 0.0 mm
12:33 23.5 °C 18.4 °C 1013.1 hPa North 6.1 km/h 13.4 km/h 73% 0.0 mm
12:38 23.7 °C 17.9 °C 1013.1 hPa NNW 6.1 km/h 13.4 km/h 70% 0.0 mm
12:43 24.3 °C 18.7 °C 1013.1 hPa WNW 6.1 km/h 12.2 km/h 71% 0.0 mm
12:49 24.7 °C 18.9 °C 1013.1 hPa West 6.1 km/h 11.1 km/h 70% 0.0 mm
12:54 24.6 °C 18.6 °C 1013.1 hPa WNW 6.1 km/h 14.8 km/h 69% 0.0 mm
12:59 25.2 °C 19.4 °C 1013.1 hPa NNW 5.0 km/h 14.8 km/h 70% 0.0 mm
13:04 25.6 °C 19.1 °C 1013.1 hPa NNW 8.7 km/h 14.8 km/h 67% 0.0 mm
13:09 25.7 °C 18.9 °C 1013.1 hPa NW 5.0 km/h 14.8 km/h 66% 0.0 mm
13:14 25.7 °C 18.2 °C 1013.1 hPa WNW 7.2 km/h 14.8 km/h 63% 0.0 mm
13:19 25.8 °C 18.2 °C 1012.8 hPa WNW 7.2 km/h 12.2 km/h 63% 0.0 mm
13:24 26.6 °C 19.3 °C 1013.1 hPa NW 3.5 km/h 12.2 km/h 64% 0.0 mm
13:29 26.9 °C 19.3 °C 1013.1 hPa WNW 11.1 km/h 13.4 km/h 63% 0.0 mm
13:34 26.9 °C 18.8 °C 1013.1 hPa WNW 8.7 km/h 13.4 km/h 61% 0.0 mm
13:39 26.6 °C 18.7 °C 1012.8 hPa West 3.5 km/h 13.4 km/h 62% 0.0 mm
13:44 25.8 °C 18.5 °C 1012.8 hPa WSW 8.7 km/h 18.3 km/h 64% 0.0 mm
13:49 25.8 °C 18.5 °C 1012.8 hPa West 11.1 km/h 18.3 km/h 64% 0.0 mm
13:54 25.8 °C 18.5 °C 1013.1 hPa West 9.7 km/h 17.2 km/h 64% 0.0 mm
13:59 26.6 °C 19.3 °C 1012.8 hPa WSW 8.7 km/h 17.2 km/h 64% 0.0 mm
14:04 26.6 °C 18.7 °C 1012.8 hPa WSW 11.1 km/h 18.3 km/h 62% 0.0 mm
14:09 26.6 °C 17.9 °C 1012.8 hPa West 12.2 km/h 19.5 km/h 59% 0.0 mm
14:14 25.7 °C 17.9 °C 1012.8 hPa West 6.1 km/h 21.9 km/h 62% 0.0 mm
14:19 25.7 °C 18.2 °C 1012.8 hPa West 13.4 km/h 27.0 km/h 63% 0.0 mm
14:24 26.6 °C 19.3 °C 1012.8 hPa West 11.1 km/h 27.0 km/h 64% 0.0 mm
14:29 26.6 °C 18.7 °C 1012.8 hPa West 15.8 km/h 24.5 km/h 62% 0.0 mm
14:34 25.7 °C 18.7 °C 1012.8 hPa West 13.4 km/h 25.6 km/h 65% 0.0 mm
14:39 25.8 °C 18.7 °C 1012.8 hPa West 9.7 km/h 25.6 km/h 65% 0.0 mm
14:40 26.6 °C 19.0 °C 1012.4 hPa West 9.7 km/h 19.5 km/h 63% 0.0 mm
14:45 26.6 °C 18.7 °C 1012.8 hPa WNW 11.1 km/h 23.3 km/h 62% 0.0 mm
14:50 26.6 °C 18.2 °C 1012.4 hPa WNW 6.1 km/h 23.3 km/h 60% 0.0 mm
14:55 26.8 °C 18.4 °C 1012.4 hPa WNW 12.2 km/h 24.5 km/h 60% 0.0 mm
15:00 26.8 °C 18.4 °C 1012.4 hPa West 12.2 km/h 24.5 km/h 60% 0.0 mm
15:05 27.0 °C 18.3 °C 1012.4 hPa WSW 12.2 km/h 21.9 km/h 59% 0.0 mm
15:10 26.9 °C 17.9 °C 1012.4 hPa WSW 7.2 km/h 21.9 km/h 58% 0.0 mm
15:15 26.7 °C 17.8 °C 1012.1 hPa West 15.8 km/h 21.9 km/h 58% 0.0 mm
15:20 26.6 °C 17.9 °C 1012.1 hPa West 13.4 km/h 24.5 km/h 59% 0.0 mm
15:25 26.6 °C 17.9 °C 1012.1 hPa West 13.4 km/h 24.5 km/h 59% 0.0 mm
15:30 26.6 °C 17.7 °C 1012.1 hPa West 9.7 km/h 25.6 km/h 58% 0.0 mm
15:35 26.6 °C 17.9 °C 1012.1 hPa WSW 12.2 km/h 25.6 km/h 59% 0.0 mm
15:40 26.7 °C 18.1 °C 1012.1 hPa West 13.4 km/h 24.5 km/h 59% 0.0 mm
15:45 27.2 °C 17.7 °C 1012.1 hPa West 13.4 km/h 24.5 km/h 56% 0.0 mm
15:50 27.1 °C 17.6 °C 1011.7 hPa West 13.4 km/h 20.9 km/h 56% 0.0 mm
15:55 27.0 °C 16.9 °C 1012.1 hPa West 6.1 km/h 23.3 km/h 54% 0.0 mm
16:00 27.8 °C 18.2 °C 1011.7 hPa West 11.1 km/h 23.3 km/h 56% 0.0 mm
16:05 27.2 °C 16.8 °C 1011.7 hPa West 12.2 km/h 23.3 km/h 53% 0.0 mm
16:10 26.9 °C 17.4 °C 1011.7 hPa West 13.4 km/h 23.3 km/h 56% 0.0 mm
16:15 26.7 °C 16.9 °C 1011.7 hPa West 14.8 km/h 24.5 km/h 55% 0.0 mm
16:20 26.6 °C 17.4 °C 1011.7 hPa West 11.1 km/h 24.5 km/h 57% 0.0 mm
16:25 26.6 °C 17.4 °C 1011.7 hPa West 13.4 km/h 23.3 km/h 57% 0.0 mm
16:30 26.7 °C 17.8 °C 1011.4 hPa WSW 14.8 km/h 23.3 km/h 58% 0.0 mm
16:35 26.6 °C 17.1 °C 1011.7 hPa West 15.8 km/h 23.3 km/h 56% 0.0 mm
16:40 26.6 °C 17.7 °C 1011.4 hPa West 14.8 km/h 24.5 km/h 58% 0.0 mm
16:45 26.6 °C 17.9 °C 1011.4 hPa West 12.2 km/h 24.5 km/h 59% 0.0 mm
16:50 26.6 °C 16.8 °C 1011.4 hPa West 11.1 km/h 21.9 km/h 55% 0.0 mm
16:55 26.6 °C 17.1 °C 1011.4 hPa WNW 9.7 km/h 21.9 km/h 56% 0.0 mm
17:01 26.6 °C 16.6 °C 1011.4 hPa WNW 11.1 km/h 21.9 km/h 54% 0.0 mm
17:06 26.6 °C 17.1 °C 1011.4 hPa West 7.2 km/h 21.9 km/h 56% 0.0 mm
17:11 26.6 °C 16.6 °C 1011.4 hPa West 17.2 km/h 23.3 km/h 54% 0.0 mm
17:16 26.6 °C 16.8 °C 1011.4 hPa West 8.7 km/h 23.3 km/h 55% 0.0 mm
17:21 26.6 °C 16.6 °C 1011.4 hPa WNW 13.4 km/h 23.3 km/h 54% 0.0 mm
17:26 25.8 °C 16.1 °C 1011.4 hPa WNW 11.1 km/h 23.3 km/h 55% 0.0 mm
17:31 26.6 °C 16.6 °C 1011.4 hPa West 15.8 km/h 23.3 km/h 54% 0.0 mm
17:36 25.8 °C 16.1 °C 1011.4 hPa WNW 14.8 km/h 23.3 km/h 55% 0.0 mm
17:41 25.7 °C 16.0 °C 1011.4 hPa West 15.8 km/h 24.5 km/h 55% 0.0 mm
17:46 25.7 °C 16.0 °C 1011.4 hPa West 12.2 km/h 24.5 km/h 55% 0.0 mm
17:51 25.7 °C 16.8 °C 1011.4 hPa West 9.7 km/h 25.6 km/h 58% 0.0 mm
17:56 25.7 °C 16.6 °C 1011.4 hPa West 7.2 km/h 25.6 km/h 57% 0.0 mm
18:01 25.7 °C 16.6 °C 1011.4 hPa West 14.8 km/h 21.9 km/h 57% 0.0 mm
18:06 25.7 °C 16.6 °C 1011.4 hPa WNW 12.2 km/h 21.9 km/h 57% 0.0 mm
18:11 25.6 °C 16.7 °C 1011.4 hPa West 14.8 km/h 21.9 km/h 58% 0.0 mm
18:16 25.3 °C 16.4 °C 1011.4 hPa West 15.8 km/h 23.3 km/h 58% 0.0 mm
18:21 25.2 °C 16.7 °C 1011.4 hPa West 8.7 km/h 23.3 km/h 59% 0.0 mm
18:27 25.2 °C 16.7 °C 1011.4 hPa WSW 11.1 km/h 21.9 km/h 59% 0.0 mm
18:32 25.3 °C 16.7 °C 1011.4 hPa West 13.4 km/h 24.5 km/h 59% 0.0 mm
18:37 25.1 °C 16.8 °C 1011.4 hPa West 9.7 km/h 24.5 km/h 60% 0.0 mm
18:42 25.1 °C 16.8 °C 1011.4 hPa West 11.1 km/h 21.9 km/h 60% 0.0 mm
18:47 24.9 °C 16.3 °C 1011.7 hPa West 17.2 km/h 25.6 km/h 59% 0.0 mm
18:52 24.5 °C 16.5 °C 1011.7 hPa West 17.2 km/h 25.6 km/h 61% 0.0 mm
18:57 24.4 °C 16.7 °C 1011.7 hPa West 13.4 km/h 21.9 km/h 62% 0.0 mm
19:02 24.3 °C 16.6 °C 1011.7 hPa West 13.4 km/h 23.3 km/h 62% 0.0 mm
19:07 24.3 °C 16.8 °C 1011.7 hPa WSW 14.8 km/h 23.3 km/h 63% 0.0 mm
19:12 24.1 °C 16.6 °C 1011.7 hPa West 12.2 km/h 23.3 km/h 63% 0.0 mm
19:17 24.1 °C 16.6 °C 1011.7 hPa WNW 11.1 km/h 23.3 km/h 63% 0.0 mm
19:22 24.1 °C 16.9 °C 1011.7 hPa WNW 7.2 km/h 19.5 km/h 64% 0.0 mm
19:27 24.3 °C 16.8 °C 1012.1 hPa West 8.7 km/h 19.5 km/h 63% 0.0 mm
19:32 24.0 °C 16.6 °C 1012.1 hPa WSW 7.2 km/h 19.5 km/h 63% 0.0 mm
19:37 23.8 °C 16.6 °C 1012.1 hPa West 12.2 km/h 19.5 km/h 64% 0.0 mm
19:42 23.6 °C 16.7 °C 1012.1 hPa WSW 6.1 km/h 15.8 km/h 65% 0.0 mm
19:47 23.4 °C 16.2 °C 1012.1 hPa WSW 5.0 km/h 14.8 km/h 64% 0.0 mm
19:52 23.3 °C 16.4 °C 1012.1 hPa West 5.0 km/h 14.8 km/h 65% 0.0 mm
19:57 23.2 °C 16.3 °C 1012.1 hPa West 2.6 km/h 14.8 km/h 65% 0.0 mm
20:02 22.5 °C 15.6 °C 1012.1 hPa WSW 3.5 km/h 9.7 km/h 65% 0.0 mm
20:07 21.7 °C 15.3 °C 1012.4 hPa WSW 1.1 km/h 11.1 km/h 67% 0.0 mm
20:12 21.3 °C 15.2 °C 1012.4 hPa West 6.1 km/h 11.1 km/h 68% 0.0 mm
20:17 20.8 °C 15.2 °C 1012.4 hPa West 6.1 km/h 13.4 km/h 70% 0.0 mm
20:22 20.5 °C 14.8 °C 1012.4 hPa SW 5.0 km/h 13.4 km/h 70% 0.0 mm
20:27 20.3 °C 14.9 °C 1012.4 hPa WSW 3.5 km/h 11.1 km/h 71% 0.0 mm
20:32 20.2 °C 15.0 °C 1012.8 hPa West 5.0 km/h 11.1 km/h 72% 0.0 mm
20:37 20.0 °C 15.0 °C 1012.4 hPa WSW 5.0 km/h 13.4 km/h 73% 0.0 mm
20:42 19.9 °C 15.2 °C 1012.8 hPa WSW 5.0 km/h 13.4 km/h 74% 0.0 mm
20:47 19.8 °C 15.3 °C 1012.8 hPa WSW 5.0 km/h 12.2 km/h 75% 0.0 mm
20:52 19.5 °C 15.2 °C 1012.8 hPa WSW 2.6 km/h 12.2 km/h 76% 0.0 mm
20:57 19.4 °C 15.1 °C 1012.8 hPa WSW 1.1 km/h 7.2 km/h 76% 0.0 mm
21:02 19.2 °C 15.1 °C 1012.8 hPa Calm   7.2 km/h 77% 0.0 mm
21:08 18.9 °C 15.2 °C 1013.1 hPa Calm   7.2 km/h 79% 0.0 mm
21:13 18.7 °C 15.0 °C 1013.1 hPa Calm   2.6 km/h 79% 0.0 mm
21:18 18.4 °C 14.9 °C 1013.1 hPa Calm     80% 0.0 mm
21:23 18.3 °C 15.0 °C 1012.8 hPa Calm     81% 0.0 mm
21:28 18.0 °C 14.9 °C 1013.1 hPa Calm     82% 0.0 mm
21:33 17.7 °C 14.4 °C 1013.1 hPa Calm     81% 0.0 mm
21:38 17.6 °C 14.3 °C 1013.1 hPa Calm     81% 0.0 mm
21:43 17.3 °C 14.4 °C 1013.1 hPa Calm     83% 0.0 mm
21:48 17.3 °C 14.8 °C 1013.1 hPa WNW 2.6 km/h 5.0 km/h 85% 0.0 mm
21:53 17.4 °C 14.9 °C 1013.4 hPa West 1.1 km/h 5.0 km/h 85% 0.0 mm
21:58 17.4 °C 14.9 °C 1013.4 hPa WSW 1.1 km/h 5.0 km/h 85% 0.0 mm
22:03 17.4 °C 15.1 °C 1013.4 hPa WSW 1.1 km/h 9.7 km/h 86% 0.0 mm
22:08 17.4 °C 15.1 °C 1013.4 hPa WSW 1.1 km/h 9.7 km/h 86% 0.0 mm
22:13 17.3 °C 14.9 °C 1013.4 hPa Calm   5.0 km/h 86% 0.0 mm
22:18 17.3 °C 14.9 °C 1013.4 hPa Calm   5.0 km/h 86% 0.0 mm
22:23 17.2 °C 14.7 °C 1013.4 hPa Calm   2.6 km/h 85% 0.0 mm
22:28 17.1 °C 14.6 °C 1013.4 hPa Calm     85% 0.0 mm
22:33 17.0 °C 14.4 °C 1013.4 hPa Calm     85% 0.0 mm
22:38 16.9 °C 14.7 °C 1013.8 hPa Calm     87% 0.0 mm
22:43 16.7 °C 14.6 °C 1013.4 hPa Calm     87% 0.0 mm
22:48 16.5 °C 14.3 °C 1013.8 hPa Calm     87% 0.0 mm
22:53 16.3 °C 14.2 °C 1013.8 hPa Calm     87% 0.0 mm
22:58 16.2 °C 14.2 °C 1013.8 hPa Calm   5.0 km/h 88% 0.0 mm
23:03 16.0 °C 14.0 °C 1013.4 hPa Calm   5.0 km/h 88% 0.0 mm
23:08 16.0 °C 14.2 °C 1013.4 hPa Calm   1.1 km/h 89% 0.0 mm
23:13 16.0 °C 14.2 °C 1013.4 hPa Calm   2.6 km/h 89% 0.0 mm
23:18 15.9 °C 14.3 °C 1013.8 hPa Calm   2.6 km/h 90% 0.0 mm
23:23 15.9 °C 14.3 °C 1013.8 hPa Calm   2.6 km/h 90% 0.0 mm
23:28 15.8 °C 14.2 °C 1013.8 hPa Calm   1.1 km/h 90% 0.0 mm
23:33 15.8 °C 14.2 °C 1013.8 hPa Calm     90% 0.0 mm
23:38 15.8 °C 14.2 °C 1013.8 hPa Calm     90% 0.0 mm
23:43 15.3 °C 13.7 °C 1013.8 hPa Calm   2.6 km/h 90% 0.0 mm
23:48 15.3 °C 13.7 °C 1013.8 hPa Calm   2.6 km/h 90% 0.0 mm
23:53 15.3 °C 13.8 °C 1013.8 hPa Calm   2.6 km/h 91% 0.0 mm
23:58 15.3 °C 13.8 °C 1014.1 hPa SW 1.1 km/h 2.6 km/h 91% 0.0 mm
Waitara, Taranaki. New Zealand Historic Data
Compliments of Weather Underground - 2 mb